Time;durP1;ratioP1;P1;durP2;ratioP2;P2;SDS_P1;SDS_P2;PMS_P1;PMS_P2;Temp;Humidity;BMP_temperature;BMP_pressure;BME280_temperature;BME280_humidity;BME280_pressure;Samples;Min_cycle;Max_cycle;Signal;HPM_P1;HPM_P2
2022/11/19 00:01:17;;;;;;;19.77;11.90;;;;;8.30;100169.00;;;;10441352;28;20197;-78
2022/11/19 00:06:21;;;;;;;19.33;11.93;;;;;8.20;100176.00;;;;10426387;28;20642;-78
2022/11/19 00:16:47;;;;;;;24.27;13.73;;;;;8.20;100178.00;;;;10474726;28;20212;-78
2022/11/19 00:21:49;;;;;;;20.03;11.00;;;;;8.20;100177.00;;;;10418984;28;20667;-78
2022/11/19 00:26:51;;;;;;;20.70;12.13;;;;;8.20;100178.00;;;;10457890;28;20198;-78
2022/11/19 00:31:53;;;;;;;18.37;12.37;;;;;8.10;100181.00;;;;10458370;28;20206;-78
2022/11/19 00:36:55;;;;;;;20.70;13.17;;;;;8.10;100172.00;;;;10445079;28;20218;-78
2022/11/19 00:41:57;;;;;;;24.60;12.07;;;;;8.10;100171.00;;;;10408400;28;20194;-78
2022/11/19 00:46:58;;;;;;;15.53;11.53;;;;;8.00;100175.00;;;;10464107;28;20300;-78
2022/11/19 00:52:01;;;;;;;19.57;12.03;;;;;8.00;100174.00;;;;10426860;28;20216;-77
2022/11/19 00:57:02;;;;;;;19.50;12.67;;;;;8.00;100176.00;;;;10441720;28;20197;-78
2022/11/19 01:02:04;;;;;;;17.87;12.23;;;;;8.00;100184.00;;;;10431250;28;20197;-78
2022/11/19 01:07:06;;;;;;;16.63;12.27;;;;;8.00;100188.00;;;;10440681;28;20557;-78
2022/11/19 01:12:08;;;;;;;19.47;12.77;;;;;8.00;100185.00;;;;10464620;28;20190;-78
2022/11/19 01:17:10;;;;;;;21.83;12.73;;;;;8.00;100220.00;;;;10444215;28;20268;-78
2022/11/19 01:22:12;;;;;;;19.27;12.93;;;;;8.00;100219.00;;;;10476504;28;20189;-77
2022/11/19 01:27:14;;;;;;;20.47;13.17;;;;;8.00;100221.00;;;;10479262;28;20207;-77
2022/11/19 01:32:16;;;;;;;22.10;13.17;;;;;7.90;100204.00;;;;10463661;28;20205;-78
2022/11/19 01:37:18;;;;;;;18.30;13.17;;;;;7.90;100195.00;;;;10479426;28;20202;-77
2022/11/19 01:47:47;;;;;;;19.83;12.30;;;;;7.80;100215.00;;;;10473392;28;20342;-77
2022/11/19 01:52:50;;;;;;;19.67;11.27;;;;;7.80;100207.00;;;;10453721;28;20210;-78
2022/11/19 01:57:57;;;;;;;14.67;10.47;;;;;7.80;100208.00;;;;10453009;28;20206;-77
2022/11/19 02:02:59;;;;;;;21.37;11.53;;;;;7.90;100214.00;;;;10462577;28;20252;-77
2022/11/19 02:08:06;;;;;;;18.97;13.13;;;;;7.90;100221.00;;;;10450260;28;20645;-77
2022/11/19 02:13:33;;;;;;;17.37;12.17;;;;;7.90;100232.00;;;;10436915;28;20198;-77
2022/11/19 02:19:23;;;;;;;20.00;12.67;;;;;7.90;100227.00;;;;10425299;28;20733;-77
2022/11/19 02:24:43;;;;;;;24.23;14.60;;;;;7.90;100231.00;;;;10444831;28;20215;-77
2022/11/19 02:30:04;;;;;;;21.13;13.90;;;;;7.80;100241.00;;;;10443255;28;20197;-77
2022/11/19 02:35:16;;;;;;;24.40;14.83;;;;;7.80;100234.00;;;;10443375;28;20209;-77
2022/11/19 02:40:33;;;;;;;23.03;15.30;;;;;7.90;100236.00;;;;10476130;28;20530;-77
2022/11/19 02:45:40;;;;;;;24.37;16.80;;;;;7.80;100245.00;;;;10459766;28;20174;-77
2022/11/19 02:50:50;;;;;;;25.67;16.93;;;;;7.80;100235.00;;;;10443738;28;20194;-78
2022/11/19 02:56:10;;;;;;;24.73;16.63;;;;;7.80;100232.00;;;;10439816;28;20491;-78
2022/11/19 03:06:34;;;;;;;23.27;16.77;;;;;7.80;100226.00;;;;10440852;28;20210;-78
2022/11/19 03:11:36;;;;;;;28.50;17.70;;;;;7.70;100227.00;;;;10460235;28;20209;-78
2022/11/19 03:16:41;;;;;;;26.73;16.60;;;;;7.70;100230.00;;;;10452522;28;20205;-78
2022/11/19 03:21:52;;;;;;;22.87;15.33;;;;;7.70;100232.00;;;;10431644;28;20620;-78
2022/11/19 03:27:00;;;;;;;27.13;16.23;;;;;7.60;100228.00;;;;10448782;28;20206;-78
2022/11/19 03:32:13;;;;;;;27.27;15.43;;;;;7.60;100221.00;;;;10418339;28;20190;-78
2022/11/19 03:37:18;;;;;;;23.10;14.63;;;;;7.60;100229.00;;;;10446329;28;20206;-78
2022/11/19 03:42:21;;;;;;;22.43;15.03;;;;;7.60;100225.00;;;;10442587;28;20201;-77
2022/11/19 03:47:32;;;;;;;27.07;15.87;;;;;7.60;100227.00;;;;10444099;28;20206;-77
2022/11/19 03:52:34;;;;;;;22.87;15.10;;;;;7.60;100226.00;;;;10450801;28;20224;-77
2022/11/19 03:57:36;;;;;;;22.30;14.33;;;;;7.60;100226.00;;;;10438569;28;20205;-78
2022/11/19 04:02:39;;;;;;;25.47;15.17;;;;;7.60;100233.00;;;;10442587;28;20224;-78
2022/11/19 04:07:41;;;;;;;21.30;14.10;;;;;7.60;100241.00;;;;10431659;28;20214;-77
2022/11/19 04:12:43;;;;;;;21.00;14.10;;;;;7.60;100236.00;;;;10415632;28;20194;-78
2022/11/19 04:17:45;;;;;;;23.00;14.03;;;;;7.70;100237.00;;;;10401076;28;20198;-78
2022/11/19 04:22:50;;;;;;;26.27;14.17;;;;;7.70;100235.00;;;;10434577;28;20189;-78
2022/11/19 04:27:52;;;;;;;22.10;14.53;;;;;7.70;100249.00;;;;10474192;28;20672;-78
2022/11/19 04:32:53;;;;;;;19.17;13.00;;;;;7.70;100256.00;;;;10416507;28;20680;-78
2022/11/19 04:37:55;;;;;;;21.27;13.40;;;;;7.70;100252.00;;;;10447950;28;20656;-78
2022/11/19 04:42:57;;;;;;;19.23;13.50;;;;;7.70;100250.00;;;;10437889;28;20182;-78
2022/11/19 04:47:59;;;;;;;25.27;13.80;;;;;7.70;100257.00;;;;10455723;28;20601;-77
2022/11/19 04:53:01;;;;;;;21.60;13.27;;;;;7.70;100261.00;;;;10436969;28;20657;-78
2022/11/19 04:58:03;;;;;;;17.10;13.10;;;;;7.70;100255.00;;;;10457583;28;20661;-77
2022/11/19 05:03:05;;;;;;;19.60;14.17;;;;;7.70;100264.00;;;;10459549;28;20189;-78
2022/11/19 05:08:07;;;;;;;21.77;12.93;;;;;7.70;100269.00;;;;10432443;28;20202;-78
2022/11/19 05:13:09;;;;;;;23.07;13.63;;;;;7.70;100263.00;;;;10428449;28;20186;-78
2022/11/19 05:18:12;;;;;;;20.23;13.80;;;;;7.70;100265.00;;;;10460395;28;20199;-78
2022/11/19 05:23:14;;;;;;;20.13;14.13;;;;;7.70;100266.00;;;;10446112;28;20656;-77
2022/11/19 05:28:16;;;;;;;20.47;12.97;;;;;7.70;100271.00;;;;10416193;28;20649;-78
2022/11/19 05:33:17;;;;;;;24.53;13.70;;;;;7.60;100272.00;;;;10391321;28;20187;-77
2022/11/19 05:38:19;;;;;;;23.23;14.27;;;;;7.70;100275.00;;;;10459031;28;20236;-78
2022/11/19 05:43:21;;;;;;;23.77;15.10;;;;;7.70;100288.00;;;;10461831;28;20664;-78
2022/11/19 05:48:23;;;;;;;24.00;14.50;;;;;7.70;100290.00;;;;10461289;28;20185;-78
2022/11/19 05:53:25;;;;;;;19.53;13.93;;;;;7.70;100296.00;;;;10406140;28;20277;-78
2022/11/19 05:58:27;;;;;;;25.20;14.73;;;;;7.80;100308.00;;;;10466413;28;20271;-78
2022/11/19 06:03:29;;;;;;;24.43;15.03;;;;;7.80;100304.00;;;;10448359;28;20202;-78
2022/11/19 06:08:31;;;;;;;23.80;15.53;;;;;7.80;100308.00;;;;10436098;28;20205;-77
2022/11/19 06:13:33;;;;;;;27.67;15.43;;;;;7.80;100313.00;;;;10444977;28;20572;-78
2022/11/19 06:18:35;;;;;;;24.83;15.13;;;;;7.80;100322.00;;;;10443718;28;20255;-78
2022/11/19 06:23:37;;;;;;;27.03;15.27;;;;;7.80;100325.00;;;;10421184;28;20202;-78
2022/11/19 06:28:38;;;;;;;26.17;16.03;;;;;7.80;100337.00;;;;10429843;28;20198;-78
2022/11/19 06:33:40;;;;;;;30.67;17.63;;;;;7.80;100330.00;;;;10422398;28;20186;-78
2022/11/19 06:38:42;;;;;;;30.10;18.53;;;;;7.80;100348.00;;;;10436767;28;20202;-77
2022/11/19 06:43:44;;;;;;;32.30;15.77;;;;;7.50;100346.00;;;;10433127;28;20208;-77
2022/11/19 06:48:46;;;;;;;23.57;13.23;;;;;7.40;100359.00;;;;10428007;28;20189;-78
2022/11/19 06:53:48;;;;;;;19.80;10.97;;;;;7.20;100360.00;;;;10460507;28;20239;-78
2022/11/19 06:58:50;;;;;;;12.70;7.60;;;;;6.90;100377.00;;;;10457397;28;20213;-78
2022/11/19 07:03:52;;;;;;;10.33;7.07;;;;;6.60;100390.00;;;;10446184;28;20197;-77
2022/11/19 07:08:54;;;;;;;12.47;7.57;;;;;6.40;100401.00;;;;10426191;28;20215;-78
2022/11/19 07:13:56;;;;;;;13.93;7.70;;;;;6.20;100397.00;;;;10451020;28;20564;-78
2022/11/19 07:19:00;;;;;;;14.57;7.80;;;;;6.00;100388.00;;;;10454007;28;20210;-77
2022/11/19 07:24:05;;;;;;;13.13;7.63;;;;;5.90;100398.00;;;;10467772;28;20202;-77
2022/11/19 07:29:10;;;;;;;12.77;7.50;;;;;5.80;100407.00;;;;10456329;28;20197;-78
2022/11/19 07:34:12;;;;;;;14.67;7.93;;;;;5.70;100415.00;;;;10458080;28;20208;-78
2022/11/19 07:39:14;;;;;;;15.33;8.37;;;;;5.60;100433.00;;;;10442224;28;20189;-78
2022/11/19 07:44:17;;;;;;;12.47;8.53;;;;;5.60;100430.00;;;;10457019;28;20197;-78
2022/11/19 07:49:20;;;;;;;12.67;8.03;;;;;5.50;100446.00;;;;10435626;28;20197;-78
2022/11/19 07:54:22;;;;;;;14.50;8.60;;;;;5.50;100449.00;;;;10429016;28;20248;-78
2022/11/19 07:59:25;;;;;;;13.30;8.80;;;;;5.40;100444.00;;;;10454277;28;20193;-78
2022/11/19 08:04:28;;;;;;;14.67;8.80;;;;;5.40;100450.00;;;;10420649;28;20482;-78
2022/11/19 08:09:29;;;;;;;12.37;8.60;;;;;5.40;100459.00;;;;10399959;28;20229;-78
2022/11/19 08:14:31;;;;;;;15.03;8.37;;;;;5.40;100466.00;;;;10422394;28;20205;-78
2022/11/19 08:19:33;;;;;;;12.93;8.43;;;;;5.40;100471.00;;;;10450042;28;20198;-77
2022/11/19 08:24:36;;;;;;;10.80;6.93;;;;;5.30;100476.00;;;;10404924;28;20327;-78
2022/11/19 08:29:38;;;;;;;8.80;5.97;;;;;5.30;100485.00;;;;10432248;28;20201;-77
2022/11/19 08:34:39;;;;;;;10.77;6.73;;;;;5.10;100484.00;;;;10438279;28;20674;-78
2022/11/19 08:39:42;;;;;;;10.87;6.80;;;;;5.10;100495.00;;;;10428012;28;20657;-78
2022/11/19 08:44:43;;;;;;;11.10;6.40;;;;;5.10;100490.00;;;;10399551;28;20971;-77
2022/11/19 08:49:45;;;;;;;9.80;6.10;;;;;5.10;100495.00;;;;10421857;28;20777;-78
2022/11/19 08:54:47;;;;;;;7.80;5.70;;;;;5.20;100497.00;;;;10453933;28;20202;-78
2022/11/19 08:59:52;;;;;;;8.57;5.50;;;;;5.10;100504.00;;;;10461074;28;20215;-78
2022/11/19 09:04:53;;;;;;;10.60;6.33;;;;;5.10;100517.00;;;;10450477;28;20216;-77
2022/11/19 09:09:55;;;;;;;11.37;7.30;;;;;5.10;100521.00;;;;10445639;28;20196;-78
2022/11/19 09:14:57;;;;;;;17.80;10.20;;;;;5.00;100528.00;;;;10439345;28;20198;-78
2022/11/19 09:19:59;;;;;;;22.73;11.60;;;;;5.00;100531.00;;;;10426343;28;20190;-78
2022/11/19 09:25:01;;;;;;;22.43;11.90;;;;;5.00;100530.00;;;;10442623;28;20273;-77
2022/11/19 09:30:05;;;;;;;21.40;11.37;;;;;5.10;100533.00;;;;10478517;28;20664;-78
2022/11/19 09:35:07;;;;;;;24.37;13.33;;;;;5.20;100530.00;;;;10449967;28;20244;-77
2022/11/19 09:40:17;;;;;;;30.87;15.10;;;;;5.20;100535.00;;;;10441261;28;20209;-77
2022/11/19 09:45:56;;;;;;;25.90;13.30;;;;;5.10;100543.00;;;;10419812;28;20615;-77
2022/11/19 09:51:11;;;;;;;24.93;13.43;;;;;5.10;100557.00;;;;10447525;28;20190;-77
2022/11/19 09:56:20;;;;;;;23.83;13.70;;;;;5.10;100557.00;;;;10425104;28;20201;-78
2022/11/19 10:01:22;;;;;;;26.63;13.50;;;;;5.00;100563.00;;;;10417402;28;20288;-77
2022/11/19 10:06:28;;;;;;;23.50;12.30;;;;;5.00;100573.00;;;;10456639;28;20217;-78
2022/11/19 10:11:51;;;;;;;26.37;13.83;;;;;4.80;100577.00;;;;10435869;28;20652;-78
2022/11/19 10:17:18;;;;;;;26.50;14.63;;;;;4.60;100583.00;;;;10426571;28;20209;-77
2022/11/19 10:22:38;;;;;;;28.10;14.97;;;;;4.60;100576.00;;;;10441032;28;20198;-77
2022/11/19 10:27:47;;;;;;;30.90;15.27;;;;;4.70;100587.00;;;;10453809;28;20251;-76
2022/11/19 10:32:54;;;;;;;35.83;17.00;;;;;4.60;100583.00;;;;10462336;28;20191;-77
2022/11/19 10:38:09;;;;;;;36.13;17.60;;;;;4.50;100577.00;;;;10438323;28;20210;-78
2022/11/19 10:43:37;;;;;;;33.53;16.50;;;;;4.40;100567.00;;;;10419029;28;20206;-78
2022/11/19 10:49:02;;;;;;;34.77;17.07;;;;;4.40;100574.00;;;;10410496;28;20201;-78
2022/11/19 10:54:13;;;;;;;32.80;16.00;;;;;4.60;100566.00;;;;10438781;28;20182;-78
2022/11/19 10:59:18;;;;;;;28.07;14.73;;;;;4.60;100547.00;;;;10438763;28;20213;-77
2022/11/19 11:04:26;;;;;;;30.07;15.87;;;;;4.50;100560.00;;;;10407866;28;20206;-78
2022/11/19 11:09:39;;;;;;;31.77;16.50;;;;;4.60;100555.00;;;;10445759;28;20209;-78
2022/11/19 11:14:52;;;;;;;33.40;16.83;;;;;4.70;100553.00;;;;10429868;28;20194;-77
2022/11/19 11:20:01;;;;;;;34.63;15.87;;;;;4.80;100565.00;;;;10414587;28;20662;-78
2022/11/19 11:25:10;;;;;;;30.40;15.07;;;;;4.70;100570.00;;;;10459374;28;20766;-78
2022/11/19 11:30:12;;;;;;;28.47;14.07;;;;;4.60;100560.00;;;;10433558;28;20220;-78
2022/11/19 11:35:32;;;;;;;29.53;14.43;;;;;4.60;100567.00;;;;10443559;28;20213;-78
2022/11/19 11:40:34;;;;;;;31.40;14.67;;;;;4.50;100558.00;;;;10439043;28;20201;-78
2022/11/19 11:45:37;;;;;;;34.50;14.83;;;;;4.50;100572.00;;;;10431034;28;20234;-77
2022/11/19 11:50:44;;;;;;;34.60;15.83;;;;;4.40;100577.00;;;;10440414;28;20194;-78
2022/11/19 11:55:56;;;;;;;38.53;14.90;;;;;4.40;100579.00;;;;10404428;28;20264;-77
2022/11/19 12:01:10;;;;;;;31.63;15.03;;;;;4.30;100572.00;;;;10435205;28;20679;-78
2022/11/19 12:06:18;;;;;;;29.67;13.97;;;;;4.30;100573.00;;;;10434933;28;20236;-78
2022/11/19 12:11:54;;;;;;;30.67;15.63;;;;;4.30;100578.00;;;;10403139;28;20591;-78
2022/11/19 12:17:44;;;;;;;26.33;13.80;;;;;4.30;100564.00;;;;10421682;28;20233;-78
2022/11/19 12:22:49;;;;;;;30.37;13.40;;;;;4.30;100564.00;;;;10307579;28;20201;-78
2022/11/19 12:28:04;;;;;;;33.77;14.30;;;;;4.20;100572.00;;;;10407521;28;20194;-78
2022/11/19 12:33:22;;;;;;;29.37;12.97;;;;;4.10;100571.00;;;;10417245;28;20661;-78
2022/11/19 12:38:55;;;;;;;28.83;12.50;;;;;4.10;100574.00;;;;10431533;28;20296;-78
2022/11/19 12:43:59;;;;;;;24.57;12.03;;;;;4.10;100580.00;;;;10447346;28;20874;-78
2022/11/19 12:49:26;;;;;;;23.53;10.10;;;;;4.20;100590.00;;;;10431114;28;20193;-78
2022/11/19 12:55:03;;;;;;;29.20;10.93;;;;;4.20;100589.00;;;;10470809;28;20193;-78
2022/11/19 13:00:10;;;;;;;25.10;13.53;;;;;4.30;100593.00;;;;10438049;28;20202;-78
2022/11/19 13:05:17;;;;;;;21.03;10.07;;;;;4.20;100594.00;;;;10451909;28;20209;-78
2022/11/19 13:10:34;;;;;;;19.00;9.47;;;;;4.20;100597.00;;;;10444315;28;20195;-77
2022/11/19 13:15:38;;;;;;;22.50;11.77;;;;;4.40;100578.00;;;;10444880;28;20202;-77
2022/11/19 13:20:46;;;;;;;23.77;9.53;;;;;4.40;100589.00;;;;10446062;28;20244;-77
2022/11/19 13:26:01;;;;;;;21.30;10.13;;;;;4.30;100586.00;;;;10415109;28;20657;-78
2022/11/19 13:31:11;;;;;;;19.43;9.03;;;;;4.30;100590.00;;;;10471992;28;20213;-78
2022/11/19 13:36:30;;;;;;;21.60;12.20;;;;;4.20;100597.00;;;;10410741;28;20890;-77
2022/11/19 13:44:37;;;;;;;38.43;12.07;;;;;4.20;100583.00;;;;10461822;28;20219;-77
2022/11/19 13:47:00;;;;;;;31.10;15.00;;;;;4.10;100582.00;;;;10422384;28;20187;-77
2022/11/19 13:52:12;;;;;;;28.33;15.37;;;;;4.00;100576.00;;;;10463137;28;20202;-77
2022/11/19 13:57:35;;;;;;;25.90;12.07;;;;;4.00;100579.00;;;;10479245;28;20205;-77
2022/11/19 14:03:15;;;;;;;27.73;12.37;;;;;4.00;100573.00;;;;10462591;28;20247;-78
2022/11/19 14:08:41;;;;;;;36.83;14.60;;;;;4.00;100587.00;;;;10445236;28;20223;-77
2022/11/19 14:14:07;;;;;;;38.80;15.17;;;;;3.90;100582.00;;;;10456723;28;20190;-77
2022/11/19 14:30:16;;;;;;;36.80;13.57;;;;;3.70;100597.00;;;;10436754;28;20205;-77
2022/11/19 14:35:24;;;;;;;32.30;14.33;;;;;3.70;100600.00;;;;10446525;28;20217;-77
2022/11/19 14:40:29;;;;;;;43.03;16.03;;;;;3.70;100602.00;;;;10409633;28;20193;-77
2022/11/19 14:45:31;;;;;;;36.77;15.70;;;;;3.60;100602.00;;;;10436326;28;20527;-77
2022/11/19 14:50:33;;;;;;;37.10;18.23;;;;;3.60;100608.00;;;;10438557;28;20194;-77
2022/11/19 14:55:35;;;;;;;43.37;16.20;;;;;3.60;100621.00;;;;10457916;28;20231;-77
2022/11/19 15:00:40;;;;;;;47.03;17.87;;;;;3.60;100620.00;;;;10460582;28;20240;-77
2022/11/19 15:05:45;;;;;;;40.13;17.40;;;;;3.50;100638.00;;;;10443365;28;20702;-77
2022/11/19 15:11:05;;;;;;;42.03;14.87;;;;;3.50;100635.00;;;;10437632;28;20186;-77
2022/11/19 15:16:12;;;;;;;35.37;15.33;;;;;3.40;100627.00;;;;10433384;28;20659;-77
2022/11/19 15:21:28;;;;;;;47.67;17.70;;;;;3.40;100627.00;;;;10447520;28;20194;-77
2022/11/19 15:26:52;;;;;;;44.87;17.80;;;;;3.40;100627.00;;;;10437747;28;20555;-77
2022/11/19 15:31:54;;;;;;;36.87;15.93;;;;;3.40;100626.00;;;;10454681;28;20185;-77
2022/11/19 15:37:02;;;;;;;55.03;18.37;;;;;3.40;100639.00;;;;10494597;28;20224;-77
2022/11/19 15:42:15;;;;;;;50.80;19.20;;;;;3.40;100633.00;;;;10418492;28;20217;-77
2022/11/19 15:47:23;;;;;;;32.70;14.37;;;;;3.40;100635.00;;;;10432639;28;20240;-78
2022/11/19 15:52:30;;;;;;;44.23;17.83;;;;;3.40;100638.00;;;;10409968;28;20225;-78
2022/11/19 15:57:33;;;;;;;40.03;16.83;;;;;3.40;100649.00;;;;10435804;28;20205;-77
2022/11/19 16:02:41;;;;;;;45.67;20.27;;;;;3.40;100656.00;;;;10416984;28;20201;-77
2022/11/19 16:07:45;;;;;;;41.93;15.83;;;;;3.30;100653.00;;;;10458929;28;20576;-77
2022/11/19 16:18:23;;;;;;;53.40;16.43;;;;;3.20;100663.00;;;;10438997;28;20206;-77
2022/11/19 16:23:26;;;;;;;46.77;17.10;;;;;3.20;100658.00;;;;10450845;28;20205;-77
2022/11/19 16:28:31;;;;;;;33.30;15.13;;;;;3.20;100667.00;;;;10425986;28;20194;-77
2022/11/19 16:33:33;;;;;;;42.70;18.00;;;;;3.20;100665.00;;;;10454252;28;20205;-77
2022/11/19 16:38:37;;;;;;;50.67;16.80;;;;;3.10;100674.00;;;;10440267;28;20286;-77
2022/11/19 16:43:43;;;;;;;44.10;16.27;;;;;3.10;100672.00;;;;10429988;28;20194;-77
2022/11/19 16:48:48;;;;;;;45.80;17.27;;;;;3.10;100668.00;;;;10457894;28;20178;-77
2022/11/19 16:53:50;;;;;;;47.30;17.93;;;;;3.10;100673.00;;;;10444298;28;20197;-77
2022/11/19 16:58:56;;;;;;;63.03;19.63;;;;;3.00;100689.00;;;;10441679;28;20268;-77
2022/11/19 17:04:03;;;;;;;56.40;20.53;;;;;3.00;100685.00;;;;10422294;28;20198;-77
2022/11/19 17:09:05;;;;;;;39.40;18.20;;;;;3.00;100683.00;;;;10400322;28;20202;-77
2022/11/19 17:14:29;;;;;;;42.67;17.13;;;;;3.00;100684.00;;;;10444158;28;20194;-77
2022/11/19 17:19:33;;;;;;;42.73;16.03;;;;;2.90;100681.00;;;;10441711;28;20235;-77
2022/11/19 17:24:42;;;;;;;47.17;17.53;;;;;3.00;100681.00;;;;10470918;28;20259;-77
2022/11/19 17:29:44;;;;;;;47.80;20.17;;;;;3.00;100685.00;;;;10446409;28;20208;-77
2022/11/19 17:34:47;;;;;;;54.77;21.03;;;;;3.00;100693.00;;;;10448655;28;20665;-77
2022/11/19 17:39:49;;;;;;;40.83;15.90;;;;;3.00;100684.00;;;;10449257;28;20217;-77
2022/11/19 17:44:53;;;;;;;39.40;16.60;;;;;2.90;100681.00;;;;10469306;28;20208;-77
2022/11/19 17:49:55;;;;;;;47.27;19.17;;;;;2.90;100687.00;;;;10443848;28;20224;-77
2022/11/19 17:55:09;;;;;;;39.40;16.70;;;;;3.00;100678.00;;;;10451259;28;20228;-77
2022/11/19 18:00:11;;;;;;;36.97;15.80;;;;;2.90;100684.00;;;;10457618;28;20221;-77
2022/11/19 18:05:18;;;;;;;41.23;16.53;;;;;2.90;100682.00;;;;10471186;28;20225;-77
2022/11/19 18:10:21;;;;;;;40.33;15.00;;;;;2.90;100678.00;;;;10423610;28;20200;-77
2022/11/19 18:15:23;;;;;;;43.03;17.13;;;;;2.90;100686.00;;;;10438765;28;20194;-77
2022/11/19 18:20:25;;;;;;;46.40;18.10;;;;;2.80;100676.00;;;;10415783;28;20810;-77
2022/11/19 18:25:27;;;;;;;45.17;17.00;;;;;2.80;100683.00;;;;10477502;28;20443;-77
2022/11/19 18:30:29;;;;;;;51.43;21.10;;;;;2.80;100694.00;;;;10478771;28;20242;-76
2022/11/19 18:35:31;;;;;;;37.13;17.73;;;;;2.80;100693.00;;;;10445541;28;20193;-77
2022/11/19 18:40:34;;;;;;;32.57;16.13;;;;;2.80;100690.00;;;;10478087;28;20583;-76
2022/11/19 18:45:36;;;;;;;32.37;16.17;;;;;2.80;100687.00;;;;10461825;28;20208;-77
2022/11/19 18:50:38;;;;;;;40.73;16.67;;;;;2.90;100694.00;;;;10478182;28;20828;-77
2022/11/19 18:55:40;;;;;;;38.97;18.17;;;;;2.90;100692.00;;;;10477910;28;20194;-76
2022/11/19 19:00:42;;;;;;;51.13;17.17;;;;;2.90;100702.00;;;;10445946;28;20213;-77
2022/11/19 19:05:44;;;;;;;36.07;17.90;;;;;2.90;100700.00;;;;10439090;28;20260;-76
2022/11/19 19:10:45;;;;;;;51.10;21.17;;;;;2.80;100703.00;;;;10435662;28;20178;-77
2022/11/19 19:15:47;;;;;;;36.73;13.97;;;;;2.80;100696.00;;;;10443472;28;20193;-77
2022/11/19 19:20:49;;;;;;;40.93;15.53;;;;;2.70;100702.00;;;;10443736;28;20251;-77
2022/11/19 19:25:51;;;;;;;37.90;15.40;;;;;2.80;100709.00;;;;10476783;28;20198;-77
2022/11/19 19:30:57;;;;;;;35.97;17.13;;;;;2.80;100708.00;;;;10458992;28;20664;-77
2022/11/19 19:36:03;;;;;;;40.23;18.00;;;;;2.80;100716.00;;;;10452440;28;20198;-77
2022/11/19 19:41:10;;;;;;;40.53;18.77;;;;;2.80;100712.00;;;;10446060;28;20718;-76
2022/11/19 19:46:15;;;;;;;33.33;14.53;;;;;2.80;100710.00;;;;10434617;28;20747;-77
2022/11/19 19:51:17;;;;;;;34.93;16.27;;;;;2.80;100720.00;;;;10434627;28;20592;-77
2022/11/19 19:56:22;;;;;;;32.33;15.77;;;;;2.80;100723.00;;;;10417867;28;20259;-77
2022/11/19 20:01:26;;;;;;;38.57;16.00;;;;;2.80;100715.00;;;;10429131;28;20208;-77
2022/11/19 20:06:29;;;;;;;32.57;15.03;;;;;2.80;100724.00;;;;10403733;28;20267;-77
2022/11/19 20:11:31;;;;;;;32.57;14.10;;;;;2.80;100722.00;;;;10451420;28;20244;-77
2022/11/19 20:16:36;;;;;;;38.40;16.30;;;;;2.80;100737.00;;;;10433677;28;20207;-77
2022/11/19 20:21:38;;;;;;;36.03;17.03;;;;;2.80;100734.00;;;;10435328;28;20660;-77
2022/11/19 20:26:41;;;;;;;40.67;17.77;;;;;2.80;100732.00;;;;10425812;28;20212;-76
2022/11/19 20:31:48;;;;;;;43.07;17.03;;;;;2.80;100743.00;;;;10475242;28;20197;-76
2022/11/19 20:36:50;;;;;;;44.63;18.00;;;;;2.70;100736.00;;;;10458251;28;20210;-77
2022/11/19 20:47:13;;;;;;;37.70;17.20;;;;;2.70;100719.00;;;;10463300;28;20193;-77
2022/11/19 20:52:16;;;;;;;36.80;16.87;;;;;2.70;100718.00;;;;10482564;28;20212;-77
2022/11/19 20:57:18;;;;;;;34.73;17.00;;;;;2.80;100728.00;;;;10481362;28;20209;-77
2022/11/19 21:02:21;;;;;;;38.67;17.83;;;;;2.80;100738.00;;;;10465196;28;20193;-77
2022/11/19 21:07:23;;;;;;;38.17;17.83;;;;;2.80;100735.00;;;;10481441;28;20214;-76
2022/11/19 21:12:25;;;;;;;38.87;19.03;;;;;2.80;100732.00;;;;10481647;28;20541;-76
2022/11/19 21:17:27;;;;;;;40.63;18.33;;;;;2.80;100734.00;;;;10448416;28;20259;-76
2022/11/19 21:22:29;;;;;;;42.00;20.10;;;;;2.80;100733.00;;;;10423107;28;20653;-77
2022/11/19 21:27:31;;;;;;;40.47;19.33;;;;;2.90;100742.00;;;;10423245;28;20214;-77
2022/11/19 21:32:33;;;;;;;40.83;20.67;;;;;2.90;100734.00;;;;10422969;28;20264;-77
2022/11/19 21:37:35;;;;;;;38.87;19.80;;;;;2.90;100735.00;;;;10459704;28;20205;-76
2022/11/19 21:42:37;;;;;;;38.43;17.77;;;;;3.00;100741.00;;;;10447496;28;20185;-76
2022/11/19 21:47:40;;;;;;;35.97;18.57;;;;;2.90;100736.00;;;;10446995;28;20289;-76
2022/11/19 21:52:42;;;;;;;36.30;18.53;;;;;3.00;100735.00;;;;10463325;28;20232;-76
2022/11/19 21:57:43;;;;;;;35.37;18.10;;;;;2.90;100736.00;;;;10479388;28;20213;-77
2022/11/19 22:02:45;;;;;;;39.53;17.57;;;;;2.90;100737.00;;;;10415831;28;20209;-77
2022/11/19 22:07:48;;;;;;;38.40;18.83;;;;;2.90;100737.00;;;;10451705;28;20707;-77
2022/11/19 22:12:50;;;;;;;37.80;19.47;;;;;3.00;100743.00;;;;10444693;28;20197;-77
2022/11/19 22:17:53;;;;;;;34.40;18.23;;;;;3.00;100731.00;;;;10446103;28;20210;-77
2022/11/19 22:22:57;;;;;;;35.10;18.17;;;;;3.00;100731.00;;;;10479025;28;20194;-77
2022/11/19 22:27:58;;;;;;;38.60;18.20;;;;;3.00;100719.00;;;;10429245;28;20247;-77
2022/11/19 22:33:00;;;;;;;37.23;19.20;;;;;3.00;100712.00;;;;10429106;28;20185;-77
2022/11/19 22:38:02;;;;;;;31.13;16.97;;;;;3.00;100716.00;;;;10436372;28;20221;-77
2022/11/19 22:43:04;;;;;;;36.10;17.23;;;;;3.00;100722.00;;;;10428225;28;20221;-77
2022/11/19 22:48:06;;;;;;;31.07;16.97;;;;;3.00;100715.00;;;;10444601;28;20186;-77
2022/11/19 22:53:08;;;;;;;31.97;17.60;;;;;3.00;100712.00;;;;10460954;28;20551;-77
2022/11/19 22:58:10;;;;;;;35.37;19.43;;;;;3.00;100719.00;;;;10443999;28;20213;-77
2022/11/19 23:03:13;;;;;;;33.80;18.30;;;;;2.90;100702.00;;;;10444013;28;20239;-77
2022/11/19 23:08:14;;;;;;;33.20;16.90;;;;;3.00;100705.00;;;;10494812;28;20292;-77
2022/11/19 23:13:31;;;;;;;36.30;17.83;;;;;2.90;100700.00;;;;10445162;28;20198;-77
2022/11/19 23:18:55;;;;;;;44.30;18.63;;;;;2.90;100699.00;;;;10426279;28;20209;-77
2022/11/19 23:24:00;;;;;;;40.97;18.43;;;;;2.90;100702.00;;;;10435102;28;20194;-77
2022/11/19 23:29:03;;;;;;;39.27;18.37;;;;;2.90;100691.00;;;;10419291;28;20190;-77
2022/11/19 23:34:05;;;;;;;39.07;18.97;;;;;2.90;100697.00;;;;10402280;28;20675;-77
2022/11/19 23:39:13;;;;;;;32.40;17.43;;;;;2.90;100696.00;;;;10418437;28;20252;-77
2022/11/19 23:44:15;;;;;;;38.10;18.83;;;;;2.90;100707.00;;;;10402076;28;20201;-77
2022/11/19 23:49:17;;;;;;;36.40;18.53;;;;;2.90;100713.00;;;;10456454;28;20235;-77
2022/11/19 23:54:20;;;;;;;37.53;17.63;;;;;2.90;100720.00;;;;10475749;28;20247;-76
2022/11/19 23:59:22;;;;;;;35.33;18.93;;;;;2.90;100718.00;;;;10442824;28;20225;-77
